createdAt,value
2023-04-17T00:02:25.717Z,6.30
2023-04-17T00:04:56.162Z,6.57
2023-04-17T00:07:28.439Z,6.70
2023-04-17T00:09:58.235Z,6.27
2023-04-17T00:12:26.830Z,6.37
2023-04-17T00:14:55.248Z,6.77
2023-04-17T00:17:24.007Z,6.37
2023-04-17T00:19:52.313Z,6.37
2023-04-17T00:22:22.419Z,6.10
2023-04-17T00:24:50.773Z,6.40
2023-04-17T00:27:19.596Z,6.37
2023-04-17T00:29:47.962Z,5.87
2023-04-17T00:32:16.336Z,6.30
2023-04-17T00:34:44.735Z,6.20
2023-04-17T00:37:13.101Z,6.23
2023-04-17T00:39:42.853Z,6.30
2023-04-17T00:42:11.469Z,6.53
2023-04-17T00:44:40.306Z,6.43
2023-04-17T00:47:09.217Z,6.67
2023-04-17T00:49:38.067Z,6.00
2023-04-17T00:52:06.925Z,6.47
2023-04-17T00:54:36.384Z,6.40
2023-04-17T00:57:07.302Z,6.33
2023-04-17T00:59:37.399Z,6.40
2023-04-17T01:02:06.074Z,6.27
2023-04-17T01:04:34.964Z,6.30
2023-04-17T01:07:04.117Z,6.20
2023-04-17T01:09:33.058Z,6.43
2023-04-17T01:12:19.559Z,5.73
2023-04-17T01:14:48.457Z,6.07
2023-04-17T01:17:19.534Z,6.30
2023-04-17T01:19:48.594Z,6.73
2023-04-17T01:22:17.455Z,6.60
2023-04-17T01:24:48.078Z,6.87
2023-04-17T01:27:17.013Z,6.20
2023-04-17T01:29:47.910Z,6.40
2023-04-17T01:32:16.686Z,6.87
2023-04-17T01:34:45.376Z,6.17
2023-04-17T01:37:13.765Z,5.77
2023-04-17T01:39:42.916Z,6.73
2023-04-17T01:42:12.741Z,6.40
2023-04-17T01:44:41.525Z,6.97
2023-04-17T01:47:09.947Z,7.10
2023-04-17T01:49:38.695Z,6.93
2023-04-17T01:52:07.775Z,7.37
2023-04-17T01:54:36.122Z,7.07
2023-04-17T01:57:05.104Z,7.20
2023-04-17T01:59:35.021Z,7.03
2023-04-17T02:02:03.495Z,7.07
2023-04-17T02:04:32.131Z,7.20
2023-04-17T02:07:00.797Z,6.67
2023-04-17T02:09:29.144Z,7.10
2023-04-17T02:11:58.091Z,6.77
2023-04-17T02:14:26.705Z,6.70
2023-04-17T02:16:56.683Z,6.80
2023-04-17T02:19:25.491Z,6.80
2023-04-17T02:21:54.116Z,5.93
2023-04-17T02:24:22.587Z,7.07
2023-04-17T02:26:51.612Z,6.33
2023-04-17T02:29:20.382Z,6.37
2023-04-17T02:31:49.145Z,7.40
2023-04-17T02:34:19.341Z,7.33
2023-04-17T02:36:48.308Z,7.43
2023-04-17T02:39:17.132Z,7.53
2023-04-17T02:41:46.334Z,7.13
2023-04-17T02:44:14.961Z,7.40
2023-04-17T02:46:43.364Z,6.80
2023-04-17T02:49:12.027Z,7.47
2023-04-17T02:51:43.167Z,7.03
2023-04-17T02:54:11.780Z,6.63
2023-04-17T02:56:40.233Z,6.80
2023-04-17T02:59:08.640Z,6.83
2023-04-17T03:01:38.677Z,6.90
2023-04-17T03:04:07.445Z,6.67
2023-04-17T03:06:35.935Z,7.17
2023-04-17T03:09:07.122Z,6.60
2023-04-17T03:11:36.689Z,7.33
2023-04-17T03:14:05.381Z,7.17
2023-04-17T03:16:33.689Z,6.60
2023-04-17T03:19:04.021Z,6.43
2023-04-17T03:21:32.892Z,6.40
2023-04-17T03:24:01.642Z,6.70
2023-04-17T03:26:31.882Z,6.73
2023-04-17T03:29:05.407Z,6.80
2023-04-17T03:31:33.865Z,7.17
2023-04-17T03:34:02.324Z,6.83
2023-04-17T03:36:30.908Z,7.77
2023-04-17T03:38:59.734Z,7.37
2023-04-17T03:41:28.122Z,7.17
2023-04-17T03:43:58.296Z,7.07
2023-04-17T03:46:26.831Z,7.17
2023-04-17T03:48:55.482Z,7.17
2023-04-17T03:51:24.267Z,7.27
2023-04-17T03:53:53.589Z,7.13
2023-04-17T03:56:22.150Z,7.20
2023-04-17T03:58:50.744Z,7.63
2023-04-17T04:01:22.360Z,7.47
2023-04-17T04:04:08.731Z,6.80
2023-04-17T04:06:37.928Z,7.40
2023-04-17T04:09:07.108Z,8.00
2023-04-17T04:11:35.556Z,7.50
2023-04-17T04:14:04.812Z,7.93
2023-04-17T04:16:35.936Z,7.73
2023-04-17T04:19:10.946Z,7.63
2023-04-17T04:21:39.833Z,7.23
2023-04-17T04:24:13.378Z,7.70
2023-04-17T04:26:47.281Z,7.73
2023-04-17T04:29:15.728Z,7.60
2023-04-17T04:32:02.690Z,7.70
2023-04-17T04:34:37.109Z,7.40
2023-04-17T04:37:05.651Z,8.07
2023-04-17T04:39:43.146Z,7.57
2023-04-17T04:42:22.387Z,8.10
2023-04-17T04:45:29.684Z,7.63
2023-04-17T04:48:01.436Z,7.77
2023-04-17T04:50:30.952Z,7.80
2023-04-17T04:52:59.975Z,7.73
2023-04-17T04:55:40.130Z,7.83
2023-04-17T04:58:08.675Z,7.63
2023-04-17T05:00:39.066Z,7.77
2023-04-17T05:03:09.148Z,7.73
2023-04-17T05:05:38.563Z,8.50
2023-04-17T05:08:07.516Z,8.13
2023-04-17T05:10:37.812Z,7.83
2023-04-17T05:13:07.061Z,7.70
2023-04-17T05:15:35.454Z,7.43
2023-04-17T05:18:04.507Z,8.03
2023-04-17T05:20:37.728Z,7.37
2023-04-17T05:23:07.102Z,8.10
2023-04-17T05:25:35.519Z,8.03
2023-04-17T05:28:08.015Z,7.93
2023-04-17T05:30:36.726Z,7.73
2023-04-17T05:33:16.117Z,7.97
2023-04-17T05:35:53.932Z,6.67
2023-04-17T05:38:24.752Z,8.33
2023-04-17T05:40:54.877Z,8.10
2023-04-17T05:43:23.574Z,8.03
2023-04-17T05:45:54.425Z,7.77
2023-04-17T05:48:23.124Z,7.53
2023-04-17T05:50:54.659Z,7.20
2023-04-17T05:53:23.144Z,8.20
2023-04-17T05:55:55.978Z,7.87
2023-04-17T05:58:26.124Z,8.00
2023-04-17T06:00:58.189Z,8.23
2023-04-17T06:03:28.674Z,7.67
2023-04-17T06:06:21.447Z,7.57
2023-04-17T06:08:50.144Z,7.40
2023-04-17T06:11:18.568Z,7.57
2023-04-17T06:13:47.424Z,7.87
2023-04-17T06:16:18.200Z,7.23
2023-04-17T06:18:49.118Z,7.50
2023-04-17T06:21:17.551Z,7.77
2023-04-17T06:23:47.565Z,7.53
2023-04-17T06:26:18.400Z,7.63
2023-04-17T06:28:47.100Z,7.43
2023-04-17T06:31:15.895Z,7.63
2023-04-17T06:33:45.920Z,7.73
2023-04-17T06:36:14.591Z,8.13
2023-04-17T06:38:52.370Z,8.37
2023-04-17T06:41:22.519Z,7.73
2023-04-17T06:43:51.037Z,8.20
2023-04-17T06:46:19.951Z,7.90
2023-04-17T06:48:49.841Z,8.17
2023-04-17T06:51:20.714Z,8.67
2023-04-17T06:53:50.975Z,7.57
2023-04-17T06:56:19.555Z,8.00
2023-04-17T06:58:48.929Z,9.00
2023-04-17T07:01:17.794Z,8.27
2023-04-17T07:03:47.417Z,7.67
2023-04-17T07:06:15.905Z,7.60
2023-04-17T07:08:44.497Z,7.20
2023-04-17T07:11:14.349Z,7.10
2023-04-17T07:13:42.715Z,7.40
2023-04-17T07:16:11.416Z,8.00
2023-04-17T07:18:40.344Z,9.03
2023-04-17T07:21:08.833Z,8.97
2023-04-17T07:23:37.295Z,8.43
2023-04-17T07:26:06.157Z,7.43
2023-04-17T07:28:36.008Z,8.47
2023-04-17T07:31:08.796Z,9.47
2023-04-17T07:33:40.350Z,10.27
2023-04-17T07:36:12.950Z,9.40
2023-04-17T07:38:42.185Z,8.90
2023-04-17T07:41:11.686Z,9.03
2023-04-17T07:43:42.037Z,9.83
2023-04-17T07:46:10.462Z,9.67
2023-04-17T07:48:39.083Z,8.53
2023-04-17T07:51:07.745Z,9.63
2023-04-17T07:53:38.621Z,8.90
2023-04-17T07:56:07.734Z,8.53
2023-04-17T07:58:36.827Z,8.63
2023-04-17T08:01:07.044Z,8.50
2023-04-17T08:03:35.695Z,7.83
2023-04-17T08:06:04.395Z,8.13
2023-04-17T08:08:33.098Z,8.43
2023-04-17T08:11:01.564Z,7.87
2023-04-17T08:13:32.176Z,8.30
2023-04-17T08:16:01.467Z,8.73
2023-04-17T08:18:32.344Z,8.37
2023-04-17T08:21:01.662Z,8.10
2023-04-17T08:23:30.504Z,8.27
2023-04-17T08:25:59.069Z,8.20
2023-04-17T08:28:27.833Z,7.93
2023-04-17T08:30:56.254Z,8.63
2023-04-17T08:33:24.657Z,8.73
2023-04-17T08:35:54.430Z,8.67
2023-04-17T08:38:22.817Z,9.60
2023-04-17T08:40:54.228Z,9.17
2023-04-17T08:43:26.052Z,9.10
2023-04-17T08:45:55.561Z,8.07
2023-04-17T08:48:25.297Z,7.93
2023-04-17T08:50:55.582Z,7.53
2023-04-17T08:53:24.336Z,7.17
2023-04-17T08:55:52.718Z,7.57
2023-04-17T08:58:24.190Z,7.87
2023-04-17T09:00:52.689Z,7.43
2023-04-17T09:03:21.720Z,7.27
2023-04-17T09:05:51.636Z,7.40
2023-04-17T09:08:24.104Z,6.23
2023-04-17T09:10:54.881Z,6.23
2023-04-17T09:13:25.365Z,6.50
2023-04-17T09:16:07.483Z,6.17
2023-04-17T09:18:37.162Z,6.10
2023-04-17T09:21:08.416Z,6.10
2023-04-17T09:23:51.281Z,5.00
2023-04-17T09:26:22.250Z,5.33
2023-04-17T09:29:11.396Z,5.20
2023-04-17T09:31:42.283Z,5.33
2023-04-17T09:34:12.627Z,5.50
2023-04-17T09:36:43.184Z,5.70
2023-04-17T09:39:24.012Z,6.20
2023-04-17T09:42:03.609Z,5.80
2023-04-17T09:44:34.116Z,5.87
2023-04-17T09:47:07.416Z,5.80
2023-04-17T09:49:42.582Z,5.13
2023-04-17T09:52:12.494Z,5.30
2023-04-17T09:54:43.391Z,5.20
2023-04-17T09:57:13.190Z,5.37
2023-04-17T09:59:45.145Z,5.60
2023-04-17T10:02:16.396Z,4.77
2023-04-17T10:04:46.537Z,4.60
2023-04-17T10:07:16.494Z,4.90
2023-04-17T10:09:46.871Z,5.10
2023-04-17T10:12:18.337Z,4.77
2023-04-17T10:14:49.454Z,4.63
2023-04-17T10:17:24.877Z,4.30
2023-04-17T10:19:53.640Z,4.33
2023-04-17T10:22:30.846Z,3.90
2023-04-17T10:25:23.778Z,4.40
2023-04-17T10:27:58.359Z,4.00
2023-04-17T10:30:55.571Z,4.30
2023-04-17T10:33:26.506Z,3.83
2023-04-17T10:35:56.631Z,4.00
2023-04-17T10:38:36.967Z,4.10
2023-04-17T10:41:09.738Z,3.70
2023-04-17T10:43:42.762Z,3.87
2023-04-17T10:46:14.489Z,4.07
2023-04-17T10:48:49.848Z,4.40
2023-04-17T10:51:41.602Z,4.13
2023-04-17T10:54:13.684Z,4.23
2023-04-17T10:56:46.554Z,3.57
2023-04-17T10:59:17.281Z,3.87
2023-04-17T11:02:05.077Z,3.93
2023-04-17T11:04:34.619Z,4.00
2023-04-17T11:07:03.244Z,3.73
2023-04-17T11:09:31.853Z,3.70
2023-04-17T11:12:03.078Z,3.37
2023-04-17T11:14:32.381Z,3.27
2023-04-17T11:17:02.954Z,3.53
2023-04-17T11:19:34.822Z,3.60
2023-04-17T11:22:04.218Z,3.20
2023-04-17T11:24:33.889Z,3.30
2023-04-17T11:27:03.385Z,3.67
2023-04-17T11:29:31.865Z,3.17
2023-04-17T11:32:01.888Z,3.53
2023-04-17T11:34:31.803Z,3.67
2023-04-17T11:37:02.379Z,3.53
2023-04-17T11:39:33.850Z,3.60
2023-04-17T11:42:04.137Z,3.27
2023-04-17T11:44:32.688Z,3.63
2023-04-17T11:47:04.064Z,3.10
2023-04-17T11:49:34.117Z,3.80
2023-04-17T11:52:04.359Z,3.50
2023-04-17T11:54:37.116Z,3.40
2023-04-17T11:57:07.741Z,3.20
2023-04-17T11:59:38.123Z,3.43
2023-04-17T12:02:09.368Z,3.87
2023-04-17T12:04:39.869Z,3.30
2023-04-17T12:07:10.395Z,3.37
2023-04-17T12:09:38.771Z,3.27
2023-04-17T12:12:09.095Z,3.73
2023-04-17T12:14:37.464Z,4.00
2023-04-17T12:17:07.559Z,3.90
2023-04-17T12:19:35.941Z,4.37
2023-04-17T12:22:04.669Z,4.33
2023-04-17T12:24:33.070Z,3.70
2023-04-17T12:27:02.089Z,4.27
2023-04-17T12:29:42.950Z,3.93
2023-04-17T12:32:16.125Z,3.40
2023-04-17T12:34:44.834Z,3.70
2023-04-17T12:37:13.243Z,4.20
2023-04-17T12:39:41.593Z,4.00
2023-04-17T12:42:10.078Z,3.97
2023-04-17T12:44:39.754Z,4.00
2023-04-17T12:47:08.378Z,3.77
2023-04-17T12:49:38.250Z,3.60
2023-04-17T12:52:06.740Z,3.60
2023-04-17T12:54:35.995Z,3.77
2023-04-17T12:57:04.756Z,3.70
2023-04-17T12:59:33.987Z,3.40
2023-04-17T13:02:02.769Z,3.50
2023-04-17T13:04:31.860Z,3.90
2023-04-17T13:07:01.907Z,4.07
2023-04-17T13:09:30.319Z,3.73
2023-04-17T13:11:58.861Z,3.70
2023-04-17T13:14:27.279Z,3.90
2023-04-17T13:16:55.786Z,3.77
2023-04-17T13:19:24.255Z,3.53
2023-04-17T13:21:53.742Z,4.00
2023-04-17T13:24:23.605Z,3.70
2023-04-17T13:26:52.026Z,4.07
2023-04-17T13:29:20.654Z,3.63
2023-04-17T13:31:49.615Z,3.30
2023-04-17T13:34:18.078Z,2.97
2023-04-17T13:36:46.562Z,3.30
2023-04-17T13:39:15.704Z,3.47
2023-04-17T13:41:45.915Z,3.57
2023-04-17T13:44:14.874Z,3.87
2023-04-17T13:46:44.213Z,4.00
2023-04-17T13:49:12.893Z,3.77
2023-04-17T13:51:41.739Z,3.70
2023-04-17T13:54:11.902Z,3.57
2023-04-17T13:56:40.337Z,3.90
2023-04-17T13:59:10.872Z,4.03
2023-04-17T14:01:39.701Z,4.20
2023-04-17T14:04:09.624Z,3.97
2023-04-17T14:06:38.665Z,3.60
2023-04-17T14:09:07.542Z,3.60
2023-04-17T14:11:35.872Z,3.83
2023-04-17T14:14:04.780Z,4.07
2023-04-17T14:16:34.674Z,3.53
2023-04-17T14:19:13.226Z,3.90
2023-04-17T14:21:43.115Z,3.97
2023-04-17T14:24:11.569Z,3.77
2023-04-17T14:26:40.102Z,2.90
2023-04-17T14:29:09.060Z,3.87
2023-04-17T14:31:38.907Z,3.87
2023-04-17T14:34:07.393Z,3.50
2023-04-17T14:36:36.252Z,4.00
2023-04-17T14:39:05.255Z,3.40
2023-04-17T14:41:34.842Z,3.70
2023-04-17T14:44:03.608Z,3.23
2023-04-17T14:46:32.473Z,3.57
2023-04-17T14:49:02.361Z,3.30
2023-04-17T14:51:31.545Z,3.53
2023-04-17T14:53:59.885Z,3.47
2023-04-17T14:56:28.477Z,3.50
2023-04-17T14:58:56.964Z,3.07
2023-04-17T15:01:25.354Z,3.30
2023-04-17T15:03:55.100Z,3.30
2023-04-17T15:06:25.043Z,3.50
2023-04-17T15:08:53.382Z,3.37
2023-04-17T15:11:21.945Z,3.30
2023-04-17T15:13:50.715Z,3.30
2023-04-17T15:16:19.068Z,3.33
2023-04-17T15:18:47.465Z,3.30
2023-04-17T15:21:17.219Z,3.40
2023-04-17T15:23:47.146Z,3.67
2023-04-17T15:26:15.604Z,3.50
2023-04-17T15:28:44.421Z,3.07
2023-04-17T15:31:13.775Z,2.97
2023-04-17T15:33:42.285Z,3.20
2023-04-17T15:36:11.372Z,3.00
2023-04-17T15:38:39.776Z,3.80
2023-04-17T15:41:10.971Z,3.30
2023-04-17T15:43:39.722Z,3.10
2023-04-17T15:46:08.496Z,3.37
2023-04-17T15:48:37.027Z,3.33
2023-04-17T15:51:05.884Z,3.40
2023-04-17T15:53:34.912Z,3.67
2023-04-17T15:56:03.535Z,3.60
2023-04-17T15:58:33.673Z,2.90
2023-04-17T16:01:02.051Z,2.90
2023-04-17T16:03:30.935Z,3.10
2023-04-17T16:05:59.503Z,3.10
2023-04-17T16:08:27.959Z,3.30
2023-04-17T16:10:56.928Z,3.07
2023-04-17T16:13:25.768Z,3.20
2023-04-17T16:15:55.605Z,3.13
2023-04-17T16:18:24.036Z,3.00
2023-04-17T16:20:52.536Z,2.90
2023-04-17T16:23:21.839Z,3.30
2023-04-17T16:25:51.590Z,3.20
2023-04-17T16:28:19.952Z,2.83
2023-04-17T16:30:49.088Z,2.70
2023-04-17T16:33:18.925Z,2.87
2023-04-17T16:35:48.045Z,2.93
2023-04-17T16:38:16.540Z,3.00
2023-04-17T16:40:44.921Z,2.90
2023-04-17T16:43:13.247Z,2.57
2023-04-17T16:45:42.046Z,2.60
2023-04-17T16:48:11.278Z,3.07
2023-04-17T16:50:41.600Z,3.00
2023-04-17T16:53:10.767Z,3.00
2023-04-17T16:55:39.120Z,3.00
2023-04-17T16:58:07.498Z,3.17
2023-04-17T17:00:36.168Z,3.30
2023-04-17T17:03:05.297Z,3.30
2023-04-17T17:05:33.782Z,3.07
2023-04-17T17:08:04.242Z,3.07
2023-04-17T17:10:32.995Z,3.60
2023-04-17T17:13:01.502Z,3.17
2023-04-17T17:15:30.186Z,3.57
2023-04-17T17:17:58.643Z,3.20
2023-04-17T17:20:27.247Z,3.07
2023-04-17T17:22:55.795Z,3.20
2023-04-17T17:25:25.969Z,3.17
2023-04-17T17:27:54.434Z,2.73
2023-04-17T17:30:23.223Z,3.40
2023-04-17T17:32:51.895Z,3.40
2023-04-17T17:35:21.020Z,3.20
2023-04-17T17:37:49.520Z,3.50
2023-04-17T17:40:18.096Z,3.37
2023-04-17T17:42:48.374Z,3.23
2023-04-17T17:45:17.162Z,3.20
2023-04-17T17:47:45.871Z,3.30
2023-04-17T17:50:14.579Z,3.50
2023-04-17T17:52:42.946Z,3.37
2023-04-17T17:55:15.605Z,3.43
2023-04-17T17:57:49.329Z,3.00
2023-04-17T18:00:21.255Z,3.27
2023-04-17T18:02:50.016Z,3.37
2023-04-17T18:05:18.676Z,3.13
2023-04-17T18:07:47.316Z,3.70
2023-04-17T18:10:16.046Z,3.33
2023-04-17T18:12:44.560Z,2.97
2023-04-17T18:15:13.448Z,2.90
2023-04-17T18:17:43.367Z,3.00
2023-04-17T18:20:12.576Z,3.20
2023-04-17T18:22:40.954Z,3.03
2023-04-17T18:25:11.231Z,2.67
2023-04-17T18:27:39.753Z,2.67
2023-04-17T18:30:13.884Z,3.07
2023-04-17T18:32:45.870Z,2.97
2023-04-17T18:35:14.427Z,2.63
2023-04-17T18:37:43.421Z,2.77
2023-04-17T18:40:13.038Z,2.90
2023-04-17T18:42:41.500Z,2.60
2023-04-17T18:45:13.658Z,2.63
2023-04-17T18:47:43.730Z,2.67
2023-04-17T18:50:12.924Z,2.80
2023-04-17T18:52:44.014Z,2.80
2023-04-17T18:55:14.081Z,3.10
2023-04-17T18:57:42.425Z,2.83
2023-04-17T19:00:12.795Z,2.90
2023-04-17T19:02:41.444Z,2.60
2023-04-17T19:05:12.119Z,2.70
2023-04-17T19:07:40.929Z,2.70
2023-04-17T19:10:10.770Z,2.83
2023-04-17T19:12:39.334Z,2.90
2023-04-17T19:15:10.011Z,2.90
2023-04-17T19:17:38.894Z,3.03
2023-04-17T19:20:09.936Z,2.67
2023-04-17T19:22:40.060Z,3.30
2023-04-17T19:25:09.718Z,2.90
2023-04-17T19:27:38.203Z,2.83
2023-04-17T19:30:10.761Z,3.10
2023-04-17T19:32:39.212Z,2.63
2023-04-17T19:35:09.650Z,2.93
2023-04-17T19:37:39.632Z,2.80
2023-04-17T19:40:21.585Z,3.40
2023-04-17T19:42:53.241Z,3.27
2023-04-17T19:45:21.938Z,3.37
2023-04-17T19:47:56.464Z,3.43
2023-04-17T19:50:26.734Z,3.07
2023-04-17T19:52:58.175Z,3.00
2023-04-17T19:55:26.558Z,3.40
2023-04-17T19:57:56.998Z,3.17
2023-04-17T20:00:25.631Z,3.83
2023-04-17T20:02:54.559Z,3.37
2023-04-17T20:05:23.129Z,3.53
2023-04-17T20:07:51.807Z,3.83
2023-04-17T20:10:21.762Z,3.63
2023-04-17T20:12:50.559Z,3.57
2023-04-17T20:15:21.881Z,3.67
2023-04-17T20:17:51.234Z,3.30
2023-04-17T20:20:19.934Z,3.17
2023-04-17T20:22:48.596Z,3.23
2023-04-17T20:25:18.954Z,3.13
2023-04-17T20:27:49.147Z,3.43
2023-04-17T20:30:17.852Z,3.13
2023-04-17T20:32:47.997Z,3.50
2023-04-17T20:35:18.026Z,3.43
2023-04-17T20:37:47.303Z,4.00
2023-04-17T20:40:15.879Z,3.17
2023-04-17T20:42:46.619Z,3.90
2023-04-17T20:45:16.632Z,3.10
2023-04-17T20:47:56.434Z,3.23
2023-04-17T20:50:26.328Z,3.23
2023-04-17T20:52:54.660Z,3.20
2023-04-17T20:55:24.223Z,3.40
2023-04-17T20:57:52.850Z,3.10
2023-04-17T21:00:22.974Z,3.27
2023-04-17T21:02:51.692Z,3.27
2023-04-17T21:05:20.353Z,3.60
2023-04-17T21:07:50.875Z,3.13
2023-04-17T21:10:20.871Z,3.20
2023-04-17T21:12:49.364Z,3.40
2023-04-17T21:15:18.383Z,3.47
2023-04-17T21:17:48.199Z,3.20
2023-04-17T21:20:17.987Z,3.40
2023-04-17T21:22:47.645Z,2.90
2023-04-17T21:25:16.233Z,3.30
2023-04-17T21:27:45.146Z,3.13
2023-04-17T21:30:14.013Z,3.27
2023-04-17T21:32:43.107Z,2.87
2023-04-17T21:35:13.070Z,3.17
2023-04-17T21:37:41.449Z,3.23
2023-04-17T21:40:11.322Z,3.20
2023-04-17T21:42:39.780Z,3.17
2023-04-17T21:45:09.700Z,3.00
2023-04-17T21:47:38.403Z,2.77
2023-04-17T21:50:08.751Z,3.10
2023-04-17T21:52:38.724Z,2.83
2023-04-17T21:55:11.937Z,3.23
2023-04-17T21:57:40.987Z,2.70
2023-04-17T22:00:12.522Z,3.13
2023-04-17T22:02:41.333Z,2.97
2023-04-17T22:05:10.564Z,3.07
2023-04-17T22:07:51.766Z,2.80
2023-04-17T22:10:24.957Z,3.17
2023-04-17T22:12:53.638Z,2.87
2023-04-17T22:15:22.844Z,2.80
2023-04-17T22:17:51.670Z,2.80
2023-04-17T22:20:20.938Z,2.97
2023-04-17T22:22:51.134Z,2.63
2023-04-17T22:25:20.822Z,2.37
2023-04-17T22:27:49.397Z,2.50
2023-04-17T22:30:18.678Z,2.83
2023-04-17T22:32:47.036Z,2.50
2023-04-17T22:35:15.775Z,2.50
2023-04-17T22:37:44.209Z,2.50
2023-04-17T22:40:14.890Z,2.20
2023-04-17T22:42:43.735Z,2.40
2023-04-17T22:45:12.569Z,2.00
2023-04-17T22:47:41.278Z,2.30
2023-04-17T22:50:14.602Z,2.33
2023-04-17T22:52:43.217Z,2.63
2023-04-17T22:55:13.898Z,2.37
2023-04-17T22:57:42.479Z,2.67
2023-04-17T23:00:11.976Z,2.57
2023-04-17T23:02:40.704Z,2.60
2023-04-17T23:05:10.482Z,2.33
2023-04-17T23:07:39.762Z,2.53
2023-04-17T23:10:09.219Z,2.60
2023-04-17T23:12:39.079Z,2.70
2023-04-17T23:15:09.770Z,2.50
2023-04-17T23:17:38.125Z,2.77
2023-04-17T23:20:08.504Z,2.33
2023-04-17T23:22:36.937Z,2.83
2023-04-17T23:25:06.612Z,2.37
2023-04-17T23:27:35.319Z,2.43
2023-04-17T23:30:06.052Z,2.20
2023-04-17T23:32:34.477Z,2.50
2023-04-17T23:35:03.363Z,2.80
2023-04-17T23:37:31.693Z,2.70
2023-04-17T23:40:01.299Z,2.80
2023-04-17T23:42:29.778Z,2.27
2023-04-17T23:44:58.505Z,2.90
2023-04-17T23:47:28.521Z,2.27
2023-04-17T23:49:57.428Z,2.40
2023-04-17T23:52:26.147Z,2.70
2023-04-17T23:54:54.783Z,2.70
2023-04-17T23:57:23.267Z,2.63
2023-04-17T23:59:51.653Z,2.60
